sensor_id;sensor_type;location;lat;lon;timestamp;P1;durP1;ratioP1;P2;durP2;ratioP2
2111;SDS011;1062;52.538;13.400;2022-10-29T00:00:40;6.00;;;2.87;;
2111;SDS011;1062;52.538;13.400;2022-10-29T00:03:05;6.30;;;3.00;;
2111;SDS011;1062;52.538;13.400;2022-10-29T00:05:31;9.83;;;4.33;;
2111;SDS011;1062;52.538;13.400;2022-10-29T00:07:57;7.87;;;3.20;;
2111;SDS011;1062;52.538;13.400;2022-10-29T00:10:23;8.50;;;3.17;;
2111;SDS011;1062;52.538;13.400;2022-10-29T00:12:49;5.40;;;3.20;;
2111;SDS011;1062;52.538;13.400;2022-10-29T00:15:15;5.43;;;4.47;;
2111;SDS011;1062;52.538;13.400;2022-10-29T00:17:41;4.27;;;3.50;;
2111;SDS011;1062;52.538;13.400;2022-10-29T00:20:06;7.20;;;3.37;;
2111;SDS011;1062;52.538;13.400;2022-10-29T00:22:33;4.23;;;3.13;;
2111;SDS011;1062;52.538;13.400;2022-10-29T00:24:58;7.30;;;3.60;;
2111;SDS011;1062;52.538;13.400;2022-10-29T00:27:24;4.67;;;3.50;;
2111;SDS011;1062;52.538;13.400;2022-10-29T00:29:50;7.50;;;4.43;;
2111;SDS011;1062;52.538;13.400;2022-10-29T00:32:16;8.30;;;3.70;;
2111;SDS011;1062;52.538;13.400;2022-10-29T00:34:41;7.80;;;3.97;;
2111;SDS011;1062;52.538;13.400;2022-10-29T00:37:07;8.93;;;3.33;;
2111;SDS011;1062;52.538;13.400;2022-10-29T00:39:32;10.43;;;3.50;;
2111;SDS011;1062;52.538;13.400;2022-10-29T00:41:58;4.70;;;3.20;;
2111;SDS011;1062;52.538;13.400;2022-10-29T00:44:26;6.50;;;2.80;;
2111;SDS011;1062;52.538;13.400;2022-10-29T00:49:26;8.63;;;3.90;;
2111;SDS011;1062;52.538;13.400;2022-10-29T00:51:52;6.20;;;3.47;;
2111;SDS011;1062;52.538;13.400;2022-10-29T00:54:19;6.40;;;4.30;;
2111;SDS011;1062;52.538;13.400;2022-10-29T00:56:55;7.90;;;3.70;;
2111;SDS011;1062;52.538;13.400;2022-10-29T00:59:24;8.13;;;4.27;;
2111;SDS011;1062;52.538;13.400;2022-10-29T01:01:50;9.03;;;4.20;;
2111;SDS011;1062;52.538;13.400;2022-10-29T01:04:16;5.83;;;3.30;;
2111;SDS011;1062;52.538;13.400;2022-10-29T01:06:42;7.67;;;3.93;;
2111;SDS011;1062;52.538;13.400;2022-10-29T01:09:08;7.97;;;4.17;;
2111;SDS011;1062;52.538;13.400;2022-10-29T01:17:44;6.87;;;4.23;;
2111;SDS011;1062;52.538;13.400;2022-10-29T01:20:37;9.27;;;5.33;;
2111;SDS011;1062;52.538;13.400;2022-10-29T01:32:03;9.33;;;5.03;;
2111;SDS011;1062;52.538;13.400;2022-10-29T01:37:20;13.23;;;5.10;;
2111;SDS011;1062;52.538;13.400;2022-10-29T01:40:06;6.07;;;4.60;;
2111;SDS011;1062;52.538;13.400;2022-10-29T01:45:40;9.43;;;3.93;;
2111;SDS011;1062;52.538;13.400;2022-10-29T01:48:14;11.77;;;5.47;;
2111;SDS011;1062;52.538;13.400;2022-10-29T01:50:44;7.20;;;5.80;;
2111;SDS011;1062;52.538;13.400;2022-10-29T01:53:13;8.93;;;4.70;;
2111;SDS011;1062;52.538;13.400;2022-10-29T01:55:41;12.77;;;4.60;;
2111;SDS011;1062;52.538;13.400;2022-10-29T01:58:06;10.33;;;5.20;;
2111;SDS011;1062;52.538;13.400;2022-10-29T02:00:39;11.50;;;5.40;;
2111;SDS011;1062;52.538;13.400;2022-10-29T02:06:18;9.13;;;4.60;;
2111;SDS011;1062;52.538;13.400;2022-10-29T02:11:45;11.07;;;5.37;;
2111;SDS011;1062;52.538;13.400;2022-10-29T02:14:38;6.93;;;4.80;;
2111;SDS011;1062;52.538;13.400;2022-10-29T02:17:10;13.57;;;6.10;;
2111;SDS011;1062;52.538;13.400;2022-10-29T02:19:35;8.37;;;5.10;;
2111;SDS011;1062;52.538;13.400;2022-10-29T02:22:01;12.27;;;5.50;;
2111;SDS011;1062;52.538;13.400;2022-10-29T02:24:27;9.70;;;6.03;;
2111;SDS011;1062;52.538;13.400;2022-10-29T02:26:52;12.17;;;6.60;;
2111;SDS011;1062;52.538;13.400;2022-10-29T02:29:18;13.93;;;5.63;;
2111;SDS011;1062;52.538;13.400;2022-10-29T02:31:43;9.33;;;6.03;;
2111;SDS011;1062;52.538;13.400;2022-10-29T02:34:09;10.80;;;6.07;;
2111;SDS011;1062;52.538;13.400;2022-10-29T02:36:35;9.60;;;4.87;;
2111;SDS011;1062;52.538;13.400;2022-10-29T02:39:00;10.60;;;5.10;;
2111;SDS011;1062;52.538;13.400;2022-10-29T02:41:26;10.60;;;5.90;;
2111;SDS011;1062;52.538;13.400;2022-10-29T02:43:51;9.23;;;5.40;;
2111;SDS011;1062;52.538;13.400;2022-10-29T02:46:18;8.70;;;5.17;;
2111;SDS011;1062;52.538;13.400;2022-10-29T02:48:45;12.80;;;5.80;;
2111;SDS011;1062;52.538;13.400;2022-10-29T02:51:10;9.40;;;4.67;;
2111;SDS011;1062;52.538;13.400;2022-10-29T02:53:36;6.80;;;4.77;;
2111;SDS011;1062;52.538;13.400;2022-10-29T02:56:02;10.37;;;5.90;;
2111;SDS011;1062;52.538;13.400;2022-10-29T02:58:28;9.10;;;6.00;;
2111;SDS011;1062;52.538;13.400;2022-10-29T03:00:54;10.20;;;6.07;;
2111;SDS011;1062;52.538;13.400;2022-10-29T03:03:20;10.10;;;5.37;;
2111;SDS011;1062;52.538;13.400;2022-10-29T03:05:46;6.93;;;4.20;;
2111;SDS011;1062;52.538;13.400;2022-10-29T03:08:12;6.90;;;5.80;;
2111;SDS011;1062;52.538;13.400;2022-10-29T03:10:37;9.50;;;5.40;;
2111;SDS011;1062;52.538;13.400;2022-10-29T03:13:03;13.30;;;6.30;;
2111;SDS011;1062;52.538;13.400;2022-10-29T03:15:28;8.23;;;5.30;;
2111;SDS011;1062;52.538;13.400;2022-10-29T03:17:54;7.37;;;5.53;;
2111;SDS011;1062;52.538;13.400;2022-10-29T03:20:19;7.80;;;5.03;;
2111;SDS011;1062;52.538;13.400;2022-10-29T03:22:45;8.63;;;5.20;;
2111;SDS011;1062;52.538;13.400;2022-10-29T03:25:10;11.93;;;5.40;;
2111;SDS011;1062;52.538;13.400;2022-10-29T03:27:39;11.60;;;4.27;;
2111;SDS011;1062;52.538;13.400;2022-10-29T03:30:09;5.37;;;3.80;;
2111;SDS011;1062;52.538;13.400;2022-10-29T03:32:39;8.00;;;4.83;;
2111;SDS011;1062;52.538;13.400;2022-10-29T03:35:06;6.80;;;4.20;;
2111;SDS011;1062;52.538;13.400;2022-10-29T03:37:32;8.87;;;7.37;;
2111;SDS011;1062;52.538;13.400;2022-10-29T03:39:58;7.37;;;5.83;;
2111;SDS011;1062;52.538;13.400;2022-10-29T03:42:23;9.70;;;4.90;;
2111;SDS011;1062;52.538;13.400;2022-10-29T03:44:49;13.23;;;5.93;;
2111;SDS011;1062;52.538;13.400;2022-10-29T03:47:14;8.03;;;6.07;;
2111;SDS011;1062;52.538;13.400;2022-10-29T03:49:40;6.43;;;4.70;;
2111;SDS011;1062;52.538;13.400;2022-10-29T03:52:05;12.60;;;5.50;;
2111;SDS011;1062;52.538;13.400;2022-10-29T03:54:31;11.60;;;7.30;;
2111;SDS011;1062;52.538;13.400;2022-10-29T03:56:56;11.20;;;6.67;;
2111;SDS011;1062;52.538;13.400;2022-10-29T03:59:22;12.60;;;6.00;;
2111;SDS011;1062;52.538;13.400;2022-10-29T04:01:47;10.00;;;5.23;;
2111;SDS011;1062;52.538;13.400;2022-10-29T04:04:13;7.73;;;4.50;;
2111;SDS011;1062;52.538;13.400;2022-10-29T04:06:38;12.10;;;4.53;;
2111;SDS011;1062;52.538;13.400;2022-10-29T04:09:04;10.00;;;4.70;;
2111;SDS011;1062;52.538;13.400;2022-10-29T04:11:29;8.63;;;4.97;;
2111;SDS011;1062;52.538;13.400;2022-10-29T04:13:54;13.50;;;5.90;;
2111;SDS011;1062;52.538;13.400;2022-10-29T04:16:20;8.30;;;4.90;;
2111;SDS011;1062;52.538;13.400;2022-10-29T04:18:46;18.53;;;6.80;;
2111;SDS011;1062;52.538;13.400;2022-10-29T04:21:12;9.33;;;6.90;;
2111;SDS011;1062;52.538;13.400;2022-10-29T04:23:38;10.37;;;5.90;;
2111;SDS011;1062;52.538;13.400;2022-10-29T04:26:03;11.43;;;5.60;;
2111;SDS011;1062;52.538;13.400;2022-10-29T04:28:29;6.87;;;4.13;;
2111;SDS011;1062;52.538;13.400;2022-10-29T04:30:54;8.77;;;5.60;;
2111;SDS011;1062;52.538;13.400;2022-10-29T04:33:20;8.83;;;4.40;;
2111;SDS011;1062;52.538;13.400;2022-10-29T04:35:52;6.93;;;4.70;;
2111;SDS011;1062;52.538;13.400;2022-10-29T04:38:19;7.27;;;4.60;;
2111;SDS011;1062;52.538;13.400;2022-10-29T04:40:45;10.77;;;4.80;;
2111;SDS011;1062;52.538;13.400;2022-10-29T04:43:10;14.43;;;4.87;;
2111;SDS011;1062;52.538;13.400;2022-10-29T04:45:36;9.20;;;5.50;;
2111;SDS011;1062;52.538;13.400;2022-10-29T04:48:02;8.37;;;5.10;;
2111;SDS011;1062;52.538;13.400;2022-10-29T04:50:29;7.57;;;5.20;;
2111;SDS011;1062;52.538;13.400;2022-10-29T04:52:58;7.47;;;5.13;;
2111;SDS011;1062;52.538;13.400;2022-10-29T04:55:25;10.50;;;5.30;;
2111;SDS011;1062;52.538;13.400;2022-10-29T04:57:51;9.53;;;5.70;;
2111;SDS011;1062;52.538;13.400;2022-10-29T05:00:17;9.57;;;5.97;;
2111;SDS011;1062;52.538;13.400;2022-10-29T05:02:46;6.97;;;4.70;;
2111;SDS011;1062;52.538;13.400;2022-10-29T05:05:13;9.23;;;5.37;;
2111;SDS011;1062;52.538;13.400;2022-10-29T05:07:38;8.80;;;5.03;;
2111;SDS011;1062;52.538;13.400;2022-10-29T05:10:04;10.83;;;6.00;;
2111;SDS011;1062;52.538;13.400;2022-10-29T05:12:29;6.13;;;4.03;;
2111;SDS011;1062;52.538;13.400;2022-10-29T05:14:55;9.30;;;4.70;;
2111;SDS011;1062;52.538;13.400;2022-10-29T05:17:20;8.63;;;6.10;;
2111;SDS011;1062;52.538;13.400;2022-10-29T05:19:46;10.47;;;5.57;;
2111;SDS011;1062;52.538;13.400;2022-10-29T05:22:11;6.53;;;5.13;;
2111;SDS011;1062;52.538;13.400;2022-10-29T05:24:37;13.53;;;6.40;;
2111;SDS011;1062;52.538;13.400;2022-10-29T05:27:04;6.80;;;4.50;;
2111;SDS011;1062;52.538;13.400;2022-10-29T05:29:30;7.33;;;5.30;;
2111;SDS011;1062;52.538;13.400;2022-10-29T05:31:56;11.43;;;5.23;;
2111;SDS011;1062;52.538;13.400;2022-10-29T05:34:21;9.87;;;5.23;;
2111;SDS011;1062;52.538;13.400;2022-10-29T05:36:47;7.13;;;5.00;;
2111;SDS011;1062;52.538;13.400;2022-10-29T05:39:12;14.17;;;5.90;;
2111;SDS011;1062;52.538;13.400;2022-10-29T05:41:38;10.97;;;5.80;;
2111;SDS011;1062;52.538;13.400;2022-10-29T05:44:03;6.07;;;5.57;;
2111;SDS011;1062;52.538;13.400;2022-10-29T05:46:29;10.93;;;5.80;;
2111;SDS011;1062;52.538;13.400;2022-10-29T05:48:55;8.50;;;5.97;;
2111;SDS011;1062;52.538;13.400;2022-10-29T05:51:20;8.40;;;5.43;;
2111;SDS011;1062;52.538;13.400;2022-10-29T05:53:46;12.50;;;4.87;;
2111;SDS011;1062;52.538;13.400;2022-10-29T05:56:12;10.63;;;8.17;;
2111;SDS011;1062;52.538;13.400;2022-10-29T05:58:37;13.60;;;5.90;;
2111;SDS011;1062;52.538;13.400;2022-10-29T06:01:07;9.40;;;6.70;;
2111;SDS011;1062;52.538;13.400;2022-10-29T06:03:33;14.17;;;7.13;;
2111;SDS011;1062;52.538;13.400;2022-10-29T06:05:59;9.33;;;5.70;;
2111;SDS011;1062;52.538;13.400;2022-10-29T06:08:24;11.00;;;5.43;;
2111;SDS011;1062;52.538;13.400;2022-10-29T06:10:50;8.70;;;5.03;;
2111;SDS011;1062;52.538;13.400;2022-10-29T06:13:16;12.63;;;6.00;;
2111;SDS011;1062;52.538;13.400;2022-10-29T06:15:43;10.13;;;6.17;;
2111;SDS011;1062;52.538;13.400;2022-10-29T06:18:09;9.47;;;5.83;;
2111;SDS011;1062;52.538;13.400;2022-10-29T06:20:35;11.20;;;5.93;;
2111;SDS011;1062;52.538;13.400;2022-10-29T06:23:02;10.03;;;5.70;;
2111;SDS011;1062;52.538;13.400;2022-10-29T06:25:28;11.77;;;6.23;;
2111;SDS011;1062;52.538;13.400;2022-10-29T06:28:00;8.93;;;6.47;;
2111;SDS011;1062;52.538;13.400;2022-10-29T06:30:28;9.80;;;5.17;;
2111;SDS011;1062;52.538;13.400;2022-10-29T06:32:54;7.00;;;4.60;;
2111;SDS011;1062;52.538;13.400;2022-10-29T06:35:20;9.70;;;5.23;;
2111;SDS011;1062;52.538;13.400;2022-10-29T06:37:46;8.67;;;5.00;;
2111;SDS011;1062;52.538;13.400;2022-10-29T06:40:11;7.57;;;5.03;;
2111;SDS011;1062;52.538;13.400;2022-10-29T06:42:37;7.60;;;5.07;;
2111;SDS011;1062;52.538;13.400;2022-10-29T06:45:02;7.87;;;5.20;;
2111;SDS011;1062;52.538;13.400;2022-10-29T06:47:28;7.10;;;4.63;;
2111;SDS011;1062;52.538;13.400;2022-10-29T06:49:53;10.67;;;6.00;;
2111;SDS011;1062;52.538;13.400;2022-10-29T06:52:19;10.00;;;7.60;;
2111;SDS011;1062;52.538;13.400;2022-10-29T06:54:44;11.20;;;5.80;;
2111;SDS011;1062;52.538;13.400;2022-10-29T06:57:10;9.53;;;5.27;;
2111;SDS011;1062;52.538;13.400;2022-10-29T06:59:35;10.33;;;4.80;;
2111;SDS011;1062;52.538;13.400;2022-10-29T07:02:01;10.50;;;5.80;;
2111;SDS011;1062;52.538;13.400;2022-10-29T07:04:26;9.67;;;5.60;;
2111;SDS011;1062;52.538;13.400;2022-10-29T07:06:52;8.27;;;4.43;;
2111;SDS011;1062;52.538;13.400;2022-10-29T07:09:17;7.63;;;4.67;;
2111;SDS011;1062;52.538;13.400;2022-10-29T07:11:43;12.90;;;6.10;;
2111;SDS011;1062;52.538;13.400;2022-10-29T07:14:08;18.63;;;6.20;;
2111;SDS011;1062;52.538;13.400;2022-10-29T07:16:34;8.93;;;5.20;;
2111;SDS011;1062;52.538;13.400;2022-10-29T07:19:01;7.03;;;5.17;;
2111;SDS011;1062;52.538;13.400;2022-10-29T07:21:27;8.27;;;4.67;;
2111;SDS011;1062;52.538;13.400;2022-10-29T07:23:52;9.00;;;4.93;;
2111;SDS011;1062;52.538;13.400;2022-10-29T07:26:18;10.17;;;4.77;;
2111;SDS011;1062;52.538;13.400;2022-10-29T07:28:43;7.70;;;5.20;;
2111;SDS011;1062;52.538;13.400;2022-10-29T07:31:09;8.73;;;5.10;;
2111;SDS011;1062;52.538;13.400;2022-10-29T07:33:35;7.73;;;4.13;;
2111;SDS011;1062;52.538;13.400;2022-10-29T07:36:00;10.20;;;5.50;;
2111;SDS011;1062;52.538;13.400;2022-10-29T07:38:26;16.37;;;10.53;;
2111;SDS011;1062;52.538;13.400;2022-10-29T07:40:51;7.67;;;4.70;;
2111;SDS011;1062;52.538;13.400;2022-10-29T07:43:18;6.90;;;5.03;;
2111;SDS011;1062;52.538;13.400;2022-10-29T07:45:45;9.97;;;5.60;;
2111;SDS011;1062;52.538;13.400;2022-10-29T07:48:13;6.83;;;5.87;;
2111;SDS011;1062;52.538;13.400;2022-10-29T07:50:40;8.53;;;5.07;;
2111;SDS011;1062;52.538;13.400;2022-10-29T07:53:05;6.87;;;3.83;;
2111;SDS011;1062;52.538;13.400;2022-10-29T07:55:31;6.63;;;4.23;;
2111;SDS011;1062;52.538;13.400;2022-10-29T07:57:57;7.03;;;4.80;;
2111;SDS011;1062;52.538;13.400;2022-10-29T08:00:26;8.67;;;5.10;;
2111;SDS011;1062;52.538;13.400;2022-10-29T08:02:53;6.23;;;4.50;;
2111;SDS011;1062;52.538;13.400;2022-10-29T08:05:19;12.70;;;5.57;;
2111;SDS011;1062;52.538;13.400;2022-10-29T08:07:46;6.60;;;4.27;;
2111;SDS011;1062;52.538;13.400;2022-10-29T08:10:11;10.10;;;5.67;;
2111;SDS011;1062;52.538;13.400;2022-10-29T08:12:37;13.87;;;5.03;;
2111;SDS011;1062;52.538;13.400;2022-10-29T08:15:03;6.20;;;5.37;;
2111;SDS011;1062;52.538;13.400;2022-10-29T08:17:30;9.60;;;4.80;;
2111;SDS011;1062;52.538;13.400;2022-10-29T08:19:56;6.63;;;4.80;;
2111;SDS011;1062;52.538;13.400;2022-10-29T08:22:22;6.53;;;5.43;;
2111;SDS011;1062;52.538;13.400;2022-10-29T08:24:47;9.77;;;6.10;;
2111;SDS011;1062;52.538;13.400;2022-10-29T08:27:13;14.37;;;6.70;;
2111;SDS011;1062;52.538;13.400;2022-10-29T08:29:38;9.30;;;6.10;;
2111;SDS011;1062;52.538;13.400;2022-10-29T08:32:04;7.13;;;5.70;;
2111;SDS011;1062;52.538;13.400;2022-10-29T08:34:30;7.80;;;6.23;;
2111;SDS011;1062;52.538;13.400;2022-10-29T08:36:55;12.77;;;7.03;;
2111;SDS011;1062;52.538;13.400;2022-10-29T08:39:21;15.57;;;6.30;;
2111;SDS011;1062;52.538;13.400;2022-10-29T08:41:53;14.20;;;6.73;;
2111;SDS011;1062;52.538;13.400;2022-10-29T08:44:50;10.27;;;6.20;;
2111;SDS011;1062;52.538;13.400;2022-10-29T08:47:48;9.53;;;6.00;;
2111;SDS011;1062;52.538;13.400;2022-10-29T08:50:29;8.63;;;4.63;;
2111;SDS011;1062;52.538;13.400;2022-10-29T08:52:59;6.90;;;4.40;;
2111;SDS011;1062;52.538;13.400;2022-10-29T08:55:28;11.40;;;5.33;;
2111;SDS011;1062;52.538;13.400;2022-10-29T08:58:03;9.87;;;4.80;;
2111;SDS011;1062;52.538;13.400;2022-10-29T09:00:54;12.17;;;5.80;;
2111;SDS011;1062;52.538;13.400;2022-10-29T09:03:21;7.07;;;5.37;;
2111;SDS011;1062;52.538;13.400;2022-10-29T09:06:06;7.00;;;4.67;;
2111;SDS011;1062;52.538;13.400;2022-10-29T09:11:59;10.97;;;4.40;;
2111;SDS011;1062;52.538;13.400;2022-10-29T09:14:52;8.10;;;4.73;;
2111;SDS011;1062;52.538;13.400;2022-10-29T09:23:06;14.50;;;6.00;;
2111;SDS011;1062;52.538;13.400;2022-10-29T09:26:02;7.40;;;4.53;;
2111;SDS011;1062;52.538;13.400;2022-10-29T09:28:54;12.17;;;5.47;;
2111;SDS011;1062;52.538;13.400;2022-10-29T09:32:00;11.43;;;5.33;;
2111;SDS011;1062;52.538;13.400;2022-10-29T09:36:55;8.87;;;4.60;;
2111;SDS011;1062;52.538;13.400;2022-10-29T09:39:37;10.43;;;5.20;;
2111;SDS011;1062;52.538;13.400;2022-10-29T09:42:09;10.17;;;5.20;;
2111;SDS011;1062;52.538;13.400;2022-10-29T09:47:26;7.93;;;4.63;;
2111;SDS011;1062;52.538;13.400;2022-10-29T09:50:03;6.77;;;4.00;;
2111;SDS011;1062;52.538;13.400;2022-10-29T09:52:31;4.97;;;4.03;;
2111;SDS011;1062;52.538;13.400;2022-10-29T09:54:59;11.20;;;5.80;;
2111;SDS011;1062;52.538;13.400;2022-10-29T09:57:28;9.53;;;4.47;;
2111;SDS011;1062;52.538;13.400;2022-10-29T09:59:57;9.73;;;5.47;;
2111;SDS011;1062;52.538;13.400;2022-10-29T10:02:32;6.17;;;4.70;;
2111;SDS011;1062;52.538;13.400;2022-10-29T10:05:08;10.30;;;4.63;;
2111;SDS011;1062;52.538;13.400;2022-10-29T10:08:02;11.47;;;5.90;;
2111;SDS011;1062;52.538;13.400;2022-10-29T10:10:37;8.97;;;4.90;;
2111;SDS011;1062;52.538;13.400;2022-10-29T10:13:21;6.77;;;5.07;;
2111;SDS011;1062;52.538;13.400;2022-10-29T10:15:50;7.83;;;5.50;;
2111;SDS011;1062;52.538;13.400;2022-10-29T10:20:46;21.63;;;7.07;;
2111;SDS011;1062;52.538;13.400;2022-10-29T10:23:27;12.97;;;7.07;;
2111;SDS011;1062;52.538;13.400;2022-10-29T10:34:45;12.27;;;6.13;;
2111;SDS011;1062;52.538;13.400;2022-10-29T10:39:43;9.40;;;5.40;;
2111;SDS011;1062;52.538;13.400;2022-10-29T10:44:46;8.53;;;4.73;;
2111;SDS011;1062;52.538;13.400;2022-10-29T10:47:13;7.80;;;5.60;;
2111;SDS011;1062;52.538;13.400;2022-10-29T10:49:42;5.83;;;4.77;;
2111;SDS011;1062;52.538;13.400;2022-10-29T10:52:13;6.60;;;5.10;;
2111;SDS011;1062;52.538;13.400;2022-10-29T10:54:55;12.47;;;6.20;;
2111;SDS011;1062;52.538;13.400;2022-10-29T10:57:24;11.67;;;5.50;;
2111;SDS011;1062;52.538;13.400;2022-10-29T11:05:19;6.90;;;4.67;;
2111;SDS011;1062;52.538;13.400;2022-10-29T11:07:57;10.43;;;5.60;;
2111;SDS011;1062;52.538;13.400;2022-10-29T11:11:12;7.30;;;4.70;;
2111;SDS011;1062;52.538;13.400;2022-10-29T11:13:27;6.10;;;4.60;;
2111;SDS011;1062;52.538;13.400;2022-10-29T11:15:59;5.90;;;3.93;;
2111;SDS011;1062;52.538;13.400;2022-10-29T11:19:06;11.07;;;5.67;;
2111;SDS011;1062;52.538;13.400;2022-10-29T11:26:40;7.57;;;3.70;;
2111;SDS011;1062;52.538;13.400;2022-10-29T11:29:16;7.77;;;4.57;;
2111;SDS011;1062;52.538;13.400;2022-10-29T11:32:14;8.50;;;4.77;;
2111;SDS011;1062;52.538;13.400;2022-10-29T11:35:10;8.57;;;4.90;;
2111;SDS011;1062;52.538;13.400;2022-10-29T11:40:40;11.90;;;5.60;;
2111;SDS011;1062;52.538;13.400;2022-10-29T11:43:11;8.13;;;3.53;;
2111;SDS011;1062;52.538;13.400;2022-10-29T11:45:44;11.20;;;4.17;;
2111;SDS011;1062;52.538;13.400;2022-10-29T11:48:32;6.17;;;4.00;;
2111;SDS011;1062;52.538;13.400;2022-10-29T11:53:57;5.07;;;4.50;;
2111;SDS011;1062;52.538;13.400;2022-10-29T12:08:06;11.70;;;4.30;;
2111;SDS011;1062;52.538;13.400;2022-10-29T12:13:31;7.13;;;4.00;;
2111;SDS011;1062;52.538;13.400;2022-10-29T12:21:33;8.77;;;4.67;;
2111;SDS011;1062;52.538;13.400;2022-10-29T12:24:38;10.00;;;4.33;;
2111;SDS011;1062;52.538;13.400;2022-10-29T12:27:31;12.07;;;5.77;;
2111;SDS011;1062;52.538;13.400;2022-10-29T12:30:17;7.87;;;3.93;;
2111;SDS011;1062;52.538;13.400;2022-10-29T12:35:28;4.97;;;3.40;;
2111;SDS011;1062;52.538;13.400;2022-10-29T12:38:21;9.50;;;4.10;;
2111;SDS011;1062;52.538;13.400;2022-10-29T12:40:52;12.23;;;3.93;;
2111;SDS011;1062;52.538;13.400;2022-10-29T12:43:28;10.17;;;5.63;;
2111;SDS011;1062;52.538;13.400;2022-10-29T12:54:40;11.00;;;5.00;;
2111;SDS011;1062;52.538;13.400;2022-10-29T12:59:37;6.47;;;4.67;;
2111;SDS011;1062;52.538;13.400;2022-10-29T13:02:17;9.97;;;4.57;;
2111;SDS011;1062;52.538;13.400;2022-10-29T13:15:41;9.60;;;4.63;;
2111;SDS011;1062;52.538;13.400;2022-10-29T13:20:48;8.83;;;4.53;;
2111;SDS011;1062;52.538;13.400;2022-10-29T13:23:36;8.37;;;4.37;;
2111;SDS011;1062;52.538;13.400;2022-10-29T13:26:05;10.80;;;4.70;;
2111;SDS011;1062;52.538;13.400;2022-10-29T13:41:08;8.37;;;4.27;;
2111;SDS011;1062;52.538;13.400;2022-10-29T13:54:41;7.00;;;4.67;;
2111;SDS011;1062;52.538;13.400;2022-10-29T14:00:22;8.53;;;4.27;;
2111;SDS011;1062;52.538;13.400;2022-10-29T14:05:29;5.67;;;4.47;;
2111;SDS011;1062;52.538;13.400;2022-10-29T14:10:51;5.73;;;4.90;;
2111;SDS011;1062;52.538;13.400;2022-10-29T14:13:33;7.03;;;4.53;;
2111;SDS011;1062;52.538;13.400;2022-10-29T14:16:14;10.53;;;4.33;;
2111;SDS011;1062;52.538;13.400;2022-10-29T14:18:42;6.53;;;4.03;;
2111;SDS011;1062;52.538;13.400;2022-10-29T14:21:23;10.13;;;5.17;;
2111;SDS011;1062;52.538;13.400;2022-10-29T14:23:54;10.07;;;5.10;;
2111;SDS011;1062;52.538;13.400;2022-10-29T14:26:31;6.53;;;4.20;;
2111;SDS011;1062;52.538;13.400;2022-10-29T14:31:43;9.80;;;4.77;;
2111;SDS011;1062;52.538;13.400;2022-10-29T14:34:21;10.67;;;4.93;;
2111;SDS011;1062;52.538;13.400;2022-10-29T14:36:50;8.50;;;4.23;;
2111;SDS011;1062;52.538;13.400;2022-10-29T14:39:23;5.80;;;4.43;;
2111;SDS011;1062;52.538;13.400;2022-10-29T14:41:52;10.47;;;5.50;;
2111;SDS011;1062;52.538;13.400;2022-10-29T14:44:19;8.33;;;5.43;;
2111;SDS011;1062;52.538;13.400;2022-10-29T14:47:02;4.40;;;4.00;;
2111;SDS011;1062;52.538;13.400;2022-10-29T14:49:43;8.63;;;4.90;;
2111;SDS011;1062;52.538;13.400;2022-10-29T14:52:16;6.90;;;4.60;;
2111;SDS011;1062;52.538;13.400;2022-10-29T14:54:52;7.30;;;4.90;;
2111;SDS011;1062;52.538;13.400;2022-10-29T14:57:20;8.00;;;4.93;;
2111;SDS011;1062;52.538;13.400;2022-10-29T14:59:51;8.30;;;6.20;;
2111;SDS011;1062;52.538;13.400;2022-10-29T15:02:18;8.70;;;6.10;;
2111;SDS011;1062;52.538;13.400;2022-10-29T15:04:53;8.53;;;5.77;;
2111;SDS011;1062;52.538;13.400;2022-10-29T15:09:50;10.70;;;5.87;;
2111;SDS011;1062;52.538;13.400;2022-10-29T15:12:46;9.83;;;5.13;;
2111;SDS011;1062;52.538;13.400;2022-10-29T15:17:52;10.57;;;6.70;;
2111;SDS011;1062;52.538;13.400;2022-10-29T15:22:59;11.27;;;5.87;;
2111;SDS011;1062;52.538;13.400;2022-10-29T15:25:26;9.60;;;5.93;;
2111;SDS011;1062;52.538;13.400;2022-10-29T15:27:56;7.70;;;6.00;;
2111;SDS011;1062;52.538;13.400;2022-10-29T15:30:27;10.67;;;5.70;;
2111;SDS011;1062;52.538;13.400;2022-10-29T15:33:03;15.43;;;6.73;;
2111;SDS011;1062;52.538;13.400;2022-10-29T15:35:33;8.77;;;7.20;;
2111;SDS011;1062;52.538;13.400;2022-10-29T15:38:00;6.67;;;5.03;;
2111;SDS011;1062;52.538;13.400;2022-10-29T15:40:26;9.67;;;6.17;;
2111;SDS011;1062;52.538;13.400;2022-10-29T15:42:52;10.10;;;7.33;;
2111;SDS011;1062;52.538;13.400;2022-10-29T15:45:22;10.97;;;6.20;;
2111;SDS011;1062;52.538;13.400;2022-10-29T15:50:36;8.90;;;6.97;;
2111;SDS011;1062;52.538;13.400;2022-10-29T15:53:04;12.63;;;7.57;;
2111;SDS011;1062;52.538;13.400;2022-10-29T15:55:32;9.27;;;6.73;;
2111;SDS011;1062;52.538;13.400;2022-10-29T15:58:08;12.10;;;6.90;;
2111;SDS011;1062;52.538;13.400;2022-10-29T16:00:39;13.40;;;7.40;;
2111;SDS011;1062;52.538;13.400;2022-10-29T16:03:14;9.20;;;7.20;;
2111;SDS011;1062;52.538;13.400;2022-10-29T16:05:45;10.03;;;6.73;;
2111;SDS011;1062;52.538;13.400;2022-10-29T16:08:21;10.73;;;6.30;;
2111;SDS011;1062;52.538;13.400;2022-10-29T16:10:53;8.00;;;6.27;;
2111;SDS011;1062;52.538;13.400;2022-10-29T16:13:19;11.63;;;6.50;;
2111;SDS011;1062;52.538;13.400;2022-10-29T16:15:46;9.40;;;6.20;;
2111;SDS011;1062;52.538;13.400;2022-10-29T16:18:12;9.77;;;6.90;;
2111;SDS011;1062;52.538;13.400;2022-10-29T16:20:37;13.20;;;6.73;;
2111;SDS011;1062;52.538;13.400;2022-10-29T16:23:03;7.50;;;5.87;;
2111;SDS011;1062;52.538;13.400;2022-10-29T16:25:29;9.00;;;6.80;;
2111;SDS011;1062;52.538;13.400;2022-10-29T16:27:54;10.27;;;6.53;;
2111;SDS011;1062;52.538;13.400;2022-10-29T16:30:20;9.50;;;6.63;;
2111;SDS011;1062;52.538;13.400;2022-10-29T16:32:47;10.00;;;6.43;;
2111;SDS011;1062;52.538;13.400;2022-10-29T16:35:18;11.30;;;6.10;;
2111;SDS011;1062;52.538;13.400;2022-10-29T16:37:45;13.00;;;6.77;;
2111;SDS011;1062;52.538;13.400;2022-10-29T16:40:11;11.60;;;6.67;;
2111;SDS011;1062;52.538;13.400;2022-10-29T16:42:38;11.77;;;6.23;;
2111;SDS011;1062;52.538;13.400;2022-10-29T16:45:04;11.93;;;5.27;;
2111;SDS011;1062;52.538;13.400;2022-10-29T16:47:32;15.20;;;10.17;;
2111;SDS011;1062;52.538;13.400;2022-10-29T16:49:57;22.47;;;14.73;;
2111;SDS011;1062;52.538;13.400;2022-10-29T16:52:23;10.73;;;8.00;;
2111;SDS011;1062;52.538;13.400;2022-10-29T16:54:48;15.23;;;11.00;;
2111;SDS011;1062;52.538;13.400;2022-10-29T16:57:14;15.37;;;8.30;;
2111;SDS011;1062;52.538;13.400;2022-10-29T16:59:39;12.10;;;7.90;;
2111;SDS011;1062;52.538;13.400;2022-10-29T17:02:05;12.90;;;7.40;;
2111;SDS011;1062;52.538;13.400;2022-10-29T17:04:31;9.97;;;7.50;;
2111;SDS011;1062;52.538;13.400;2022-10-29T17:06:56;16.47;;;9.47;;
2111;SDS011;1062;52.538;13.400;2022-10-29T17:09:22;13.70;;;7.70;;
2111;SDS011;1062;52.538;13.400;2022-10-29T17:11:47;29.20;;;18.27;;
2111;SDS011;1062;52.538;13.400;2022-10-29T17:14:13;13.57;;;7.77;;
2111;SDS011;1062;52.538;13.400;2022-10-29T17:16:39;19.43;;;12.47;;
2111;SDS011;1062;52.538;13.400;2022-10-29T17:19:04;13.20;;;7.70;;
2111;SDS011;1062;52.538;13.400;2022-10-29T17:21:30;11.47;;;7.80;;
2111;SDS011;1062;52.538;13.400;2022-10-29T17:23:57;10.97;;;8.60;;
2111;SDS011;1062;52.538;13.400;2022-10-29T17:26:23;11.60;;;8.13;;
2111;SDS011;1062;52.538;13.400;2022-10-29T17:28:48;12.40;;;7.30;;
2111;SDS011;1062;52.538;13.400;2022-10-29T17:31:14;13.97;;;8.57;;
2111;SDS011;1062;52.538;13.400;2022-10-29T17:33:39;10.07;;;8.30;;
2111;SDS011;1062;52.538;13.400;2022-10-29T17:36:06;14.27;;;9.40;;
2111;SDS011;1062;52.538;13.400;2022-10-29T17:38:35;12.37;;;10.03;;
2111;SDS011;1062;52.538;13.400;2022-10-29T17:41:00;19.83;;;9.10;;
2111;SDS011;1062;52.538;13.400;2022-10-29T17:43:26;15.20;;;8.83;;
2111;SDS011;1062;52.538;13.400;2022-10-29T17:45:52;15.10;;;9.10;;
2111;SDS011;1062;52.538;13.400;2022-10-29T17:48:17;14.50;;;9.97;;
2111;SDS011;1062;52.538;13.400;2022-10-29T17:50:56;10.00;;;7.93;;
2111;SDS011;1062;52.538;13.400;2022-10-29T17:53:23;22.17;;;15.30;;
2111;SDS011;1062;52.538;13.400;2022-10-29T17:55:50;18.87;;;11.60;;
2111;SDS011;1062;52.538;13.400;2022-10-29T17:58:17;9.23;;;8.20;;